• Join FlightAware (Why Join?)
  • Login
  • US Flag 
10:42AM EDT


 

Airport Tracker/Info


-or-


 

Live Flight TrackerFlight Track Log ✈ EJA941 ✈ 06-Oct-2013 ✈ KTEB - KPTK

Flight Track Log - Related Links

Times and Time Zones

All times are in EDT time to prevent confusion due to time zone crossing. See the EJA941 flight status page for this flight to view local times or setup timezone preferences in your user account.

Time Position Orientation Groundspeed Altitude Reporting Facility
EDT Latitude Longitude Course Direction KTS MPH feet Rate Location/Type
10:23AM 40.8167 -74.1167 270° West 218 251 1,500  Level New York TRACON
10:24AM 40.8167 -74.2000 270° West 223 257 3,500 2,700 Climbing New York TRACON
10:25AM 40.8333 -74.2667 288° West 234 269 7,000 3,180 Climbing New York TRACON
10:26AM 40.9167 -74.3000 343° North 274 315 9,900 1,500 Climbing New York TRACON
10:27AM 41.0000 -74.3167 351° North 361 415 10,100 780 Climbing New York TRACON
10:28AM 41.1000 -74.3167 360° North 399 459 11,500 1,500 Climbing New York TRACON
10:29AM 41.2514 -74.3419 353° North 406 467 13,500 1,500 Climbing New York Center
10:30AM 41.3633 -74.3589 354° North 406 467 14,900 1,500 Climbing New York Center
10:31AM 41.4478 -74.4522 320° Northwest 388 447 16,500 1,500 Climbing New York Center
10:32AM 41.5022 -74.5742 301° West 382 440 17,900 1,320 Climbing New York Center
10:33AM 41.5564 -74.7047 299° West 397 457 19,200 1,380 Climbing New York Center
10:34AM 41.6103 -74.8328 299° West 397 457 20,700 1,500 Climbing New York Center
10:35AM 41.6661 -74.9639 300° West 404 465 22,200 1,500 Climbing New York Center
10:36AM 41.7219 -75.0925 300° West 404 465 23,700 1,500 Climbing New York Center
10:37AM 41.7814 -75.2297 300° West 412 474 25,200 1,500 Climbing New York Center
10:38AM 41.8367 -75.3644 299° West 412 474 26,700 1,440 Climbing New York Center
10:39AM 41.8936 -75.5019 299° West 412 474 28,100 1,440 Climbing New York Center
10:40AM 41.9525 -75.6400 300° West 417 480 29,600 1,500 Climbing New York Center
10:41AM 42.0111 -75.7839 299° West 429 494 31,100 1,500 Climbing New York Center
10:42AM 42.0697 -75.9225 300° West 434 499 32,700 1,560 Climbing New York Center
10:43AM 42.1319 -76.0728 299° West 439 505 34,300 1,800 Climbing New York Center
10:44AM 42.1836 -76.2197 295° West 444 511 36,300 1,320 Climbing New York Center
10:46AM 42.2500 -76.4667 290° West 450 518 38,000 600 Climbing Toronto Center
10:47AM 42.3000 -76.6167 294° West 460 529 38,000  Level Toronto Center
10:48AM 42.3667 -76.7667 301° West 470 541 38,000  Level Toronto Center
10:49AM 42.4167 -76.9500 290° West 480 552 38,000  Level Toronto Center
10:50AM 42.4500 -77.1000 287° West 480 552 38,000  Level Toronto Center
10:51AM 42.5167 -77.2833 296° West 480 552 38,000 -1,020 Level Toronto Center
10:52AM 42.5667 -77.4333 294° West 480 552 36,000  Descending Toronto Center
10:53AM 42.6167 -77.6167 290° West 480 552 38,000 960 Climbing Toronto Center
10:54AM 42.6667 -77.8000 290° West 480 552 38,000  Level Toronto Center
10:55AM 42.7167 -77.9500 294° West 480 552 38,000  Level Toronto Center
10:56AM 42.7667 -78.1333 290° West 480 552 38,000 -120 Level Toronto Center
10:56AM 42.8000 -78.2086 301° West 479 551 37,900 -840 Descending Cleveland Center
10:57AM 42.8489 -78.3769 292° West 479 551 36,700 -1,440 Descending Cleveland Center
10:58AM 42.9081 -78.5792 292° West 481 554 35,000 -1,320 Descending Cleveland Center
11:00AM 42.9353 -78.7592 282° West 482 555 34,000 -540 Descending Cleveland Center
11:01AM 42.9442 -78.9422 274° West 484 557 34,000  Level Cleveland Center
11:02AM 42.9536 -79.1258 274° West 487 560 34,000  Level Cleveland Center
11:03AM 42.9628 -79.3100 274° West 488 562 34,000  Level Cleveland Center
11:04AM 42.9728 -79.5294 274° West 485 558 34,000  Level Cleveland Center
11:05AM 42.9803 -79.7133 273° West 486 559 34,000  Level Cleveland Center
11:06AM 42.9875 -79.8978 273° West 487 560 34,000 -720 Level Cleveland Center
11:07AM 42.9964 -80.0828 274° West 487 560 32,600 -2,340 Descending Cleveland Center
11:08AM 43.0000 -80.3000 271° West 490 564 29,000 -2,940 Descending Toronto Center
11:09AM 43.0000 -80.4833 270° West 490 564 26,400 -2,460 Descending Toronto Center
11:10AM 43.0167 -80.6667 277° West 470 541 24,100 -1,500 Descending Toronto Center
11:11AM 43.0000 -80.8167 261° West 450 518 23,500 -600 Descending Toronto Center
11:12AM 43.0000 -81.0000 270° West 450 518 23,000 -300 Descending Toronto Center
11:13AM 42.9667 -81.1333 251° West 440 506 23,000 -900 Level Toronto Center
11:14AM 42.9500 -81.3167 263° West 440 506 21,300 -1,980 Descending Toronto Center
11:15AM 42.9167 -81.4833 255° West 410 472 19,100 -2,280 Descending Toronto Center
11:16AM 42.8833 -81.6167 251° West 420 483 16,800 -2,160 Descending Toronto Center
11:17AM 42.8667 -81.7667 261° West 410 472 14,800 -2,100 Descending Toronto Center
11:18AM 42.8333 -81.9000 251° West 410 472 12,600 -1,500 Descending Toronto Center
11:19AM 42.7833 -82.0667 248° West 390 449 11,900 -780 Descending Toronto Center
11:20AM 42.7667 -82.2000 260° West 390 449 11,100 -600 Descending Toronto Center
11:21AM 42.7500 -82.3333 260° West 380 437 10,700 -540 Descending Toronto Center
11:22AM 42.7500 -82.4667 270° West 360 414 10,100 -420 Descending Toronto Center
11:23AM 42.7567 -82.5814 275° West 339 390 10,000 -180 Descending Cleveland Center
11:23AM 42.7550 -82.6542 268° West 315 362 9,900 -720 Descending Cleveland Center
11:24AM 42.7506 -82.6944 261° West 279 321 9,300 -1,560 Descending Cleveland Center
11:24AM 42.7478 -82.7608 267° West 288 331 8,300 -1,620 Descending Cleveland Center
11:25AM 42.7447 -82.8044 265° West 289 333 7,700 -1,860 Descending Cleveland Center
11:25AM 42.7419 -82.8731 267° West 278 320 6,400 -1,800 Descending Cleveland Center
11:26AM 42.7397 -82.9031 264° West 250 288 5,900 -1,680 Descending Cleveland Center
11:26AM 42.7328 -82.9642 261° West 250 288 4,700 -1,800 Descending Cleveland Center
11:27AM 42.7228 -82.9917 244° Southwest 251 289 4,100 -720 Descending Cleveland Center
11:27AM 42.7069 -83.0553 251° West 245 282 4,000 -420 Descending Cleveland Center
11:28AM 42.6986 -83.0906 252° West 248 285 3,700 -720 Descending Cleveland Center
11:28AM 42.6839 -83.1353 246° West 248 285 3,300 -780 Descending Cleveland Center
11:29AM 42.6758 -83.1700 252° West 242 278 3,000 -720 Descending Cleveland Center
11:29AM 42.6678 -83.2203 258° West 242 278 2,600 -540 Descending Cleveland Center
11:30AM 42.6689 -83.2625 272° West 216 249 2,400 -240 Descending Cleveland Center
11:30AM 42.6667 -83.2975 265° West 219 252 2,400 -120 Level Cleveland Center
11:31AM 42.6675 -83.3333 272° West 154 177 2,300 -720 Descending Cleveland Center
11:32AM 42.6650 -83.3661 264° West 179 206 1,700 -900 Descending Cleveland Center
11:32AM 42.6658 -83.3842 274° West 139 160 1,400 -420 Descending Cleveland Center
11:33AM 42.6619 -83.4108 259° West 159 183 1,300 -180 Descending Cleveland Center
11:35AM 42.6500 -83.4167 251° West  Level FlightAware Approximate